Time;durP1;ratioP1;P1;durP2;ratioP2;P2;SDS_P1;SDS_P2;PMS_P1;PMS_P2;Temp;Humidity;BMP_temperature;BMP_pressure;BME280_temperature;BME280_humidity;BME280_pressure;Samples;Min_cycle;Max_cycle;Signal;HPM_P1;HPM_P2
2022/11/03 00:02:07;;;;;;;14.90;3.05;;;;;;;;;;4993230;28;20046;-70
2022/11/03 00:04:34;;;;;;;14.20;2.30;;;;;;;;;;5008890;28;20891;-72
2022/11/03 00:07:02;;;;;;;14.98;2.33;;;;;;;;;;5018074;28;20512;-69
2022/11/03 00:14:49;;;;;;;12.13;2.30;;;;;;;;;;5017247;28;20062;-72
2022/11/03 00:17:19;;;;;;;12.70;2.00;;;;;;;;;;5035811;23;20085;-84
2022/11/03 00:19:46;;;;;;;15.55;3.03;;;;;;;;;;5035520;28;20868;-84
2022/11/03 00:22:13;;;;;;;12.57;2.42;;;;;;;;;;5036467;28;20058;-84
2022/11/03 00:24:40;;;;;;;16.02;2.33;;;;;;;;;;5016588;28;20482;-85
2022/11/03 00:27:07;;;;;;;11.13;2.15;;;;;;;;;;5026005;28;20439;-85
2022/11/03 00:29:34;;;;;;;13.07;2.05;;;;;;;;;;5024059;28;20096;-85
2022/11/03 00:32:01;;;;;;;11.13;2.45;;;;;;;;;;5032743;28;20077;-85
2022/11/03 00:34:32;;;;;;;18.42;2.78;;;;;;;;;;5021040;28;20865;-85
2022/11/03 00:36:59;;;;;;;14.32;2.63;;;;;;;;;;5021651;28;20054;-85
2022/11/03 00:39:26;;;;;;;17.48;3.03;;;;;;;;;;5031953;28;20084;-85
2022/11/03 00:41:53;;;;;;;16.35;2.50;;;;;;;;;;5014033;28;20834;-85
2022/11/03 00:44:20;;;;;;;14.15;2.40;;;;;;;;;;5011727;28;20050;-85
2022/11/03 00:46:51;;;;;;;17.63;2.50;;;;;;;;;;5008215;28;20068;-86
2022/11/03 00:49:21;;;;;;;10.48;2.53;;;;;;;;;;5031379;28;20064;-85
2022/11/03 00:51:51;;;;;;;14.35;2.38;;;;;;;;;;5038336;28;20500;-85
2022/11/03 00:54:21;;;;;;;17.35;2.30;;;;;;;;;;5030478;28;20052;-85
2022/11/03 00:56:51;;;;;;;13.05;2.55;;;;;;;;;;5026402;28;20061;-86
2022/11/03 00:59:21;;;;;;;9.52;2.05;;;;;;;;;;5016325;28;20053;-85
2022/11/03 01:01:51;;;;;;;13.15;2.15;;;;;;;;;;5014834;28;20541;-85
2022/11/03 01:07:06;;;;;;;13.07;2.13;;;;;;;;;;5036044;28;20456;-86
2022/11/03 01:10:00;;;;;;;12.25;2.70;;;;;;;;;;4995903;28;20223;-87
2022/11/03 01:12:46;;;;;;;17.30;2.70;;;;;;;;;;5032824;28;20060;-87
2022/11/03 01:15:13;;;;;;;17.20;2.60;;;;;;;;;;5023961;28;20049;-87
2022/11/03 01:17:42;;;;;;;13.63;3.03;;;;;;;;;;5022760;28;20065;-87
2022/11/03 01:20:15;;;;;;;16.92;2.30;;;;;;;;;;5022161;28;20124;-87
2022/11/03 01:22:43;;;;;;;17.08;1.90;;;;;;;;;;5021445;28;20072;-87
2022/11/03 01:25:10;;;;;;;12.10;2.13;;;;;;;;;;5029635;28;20127;-86
2022/11/03 01:27:39;;;;;;;14.60;2.58;;;;;;;;;;5034862;28;20214;-87
2022/11/03 01:30:09;;;;;;;15.52;2.70;;;;;;;;;;5015533;28;20102;-87
2022/11/03 01:32:36;;;;;;;10.52;2.10;;;;;;;;;;5027471;28;20064;-87
2022/11/03 01:35:03;;;;;;;12.00;1.95;;;;;;;;;;5028291;28;20735;-87
2022/11/03 01:37:30;;;;;;;15.15;2.42;;;;;;;;;;5013101;28;20594;-87
2022/11/03 01:39:57;;;;;;;10.18;2.17;;;;;;;;;;5019367;28;20105;-87
2022/11/03 01:42:24;;;;;;;10.38;2.35;;;;;;;;;;5029231;28;20057;-87
2022/11/03 01:44:52;;;;;;;16.73;2.30;;;;;;;;;;5034980;28;20054;-87
2022/11/03 01:47:21;;;;;;;15.73;2.55;;;;;;;;;;5036134;28;20053;-86
2022/11/03 01:49:52;;;;;;;13.30;2.50;;;;;;;;;;5032606;28;20056;-86
2022/11/03 01:52:27;;;;;;;11.23;2.97;;;;;;;;;;5047969;28;20139;-86
2022/11/03 01:55:00;;;;;;;15.77;3.05;;;;;;;;;;5026781;28;20058;-86
2022/11/03 01:57:32;;;;;;;14.48;2.22;;;;;;;;;;5040763;28;20049;-87
2022/11/03 02:00:00;;;;;;;25.02;2.63;;;;;;;;;;5037791;28;20488;-87
2022/11/03 02:02:27;;;;;;;15.90;2.10;;;;;;;;;;5031213;28;20107;-87
2022/11/03 02:04:56;;;;;;;14.18;2.30;;;;;;;;;;5033396;28;20739;-87
2022/11/03 02:07:36;;;;;;;14.63;2.35;;;;;;;;;;5040102;28;20059;-87
2022/11/03 02:10:07;;;;;;;12.07;2.00;;;;;;;;;;5040749;28;20053;-86
2022/11/03 02:12:42;;;;;;;9.38;2.10;;;;;;;;;;5013032;28;20563;-86
2022/11/03 02:15:14;;;;;;;11.65;2.25;;;;;;;;;;5047824;28;20053;-86
2022/11/03 02:17:43;;;;;;;12.38;2.42;;;;;;;;;;5036760;28;20494;-86
2022/11/03 02:20:15;;;;;;;8.63;2.42;;;;;;;;;;5016444;28;20058;-86
2022/11/03 02:23:01;;;;;;;13.80;2.38;;;;;;;;;;5021956;28;20531;-86
2022/11/03 02:25:40;;;;;;;8.93;2.30;;;;;;;;;;5034226;28;20136;-86
2022/11/03 02:28:07;;;;;;;14.73;2.70;;;;;;;;;;5018551;28;20049;-86
2022/11/03 02:30:53;;;;;;;14.13;2.78;;;;;;;;;;5018471;28;20060;-86
2022/11/03 02:33:42;;;;;;;16.13;2.90;;;;;;;;;;5012157;28;20063;-86
2022/11/03 02:36:30;;;;;;;10.73;2.75;;;;;;;;;;5016718;28;20049;-86
2022/11/03 02:39:02;;;;;;;13.80;2.20;;;;;;;;;;5015427;28;20080;-86
2022/11/03 02:41:32;;;;;;;16.42;2.70;;;;;;;;;;5015843;28;20050;-86
2022/11/03 02:44:00;;;;;;;11.23;2.15;;;;;;;;;;5011552;28;20076;-86
2022/11/03 02:46:29;;;;;;;16.15;2.38;;;;;;;;;;5017775;28;20054;-86
2022/11/03 02:48:57;;;;;;;9.77;1.92;;;;;;;;;;5014397;28;20050;-86
2022/11/03 02:51:24;;;;;;;14.25;2.00;;;;;;;;;;5028104;28;20077;-86
2022/11/03 02:54:10;;;;;;;9.15;2.05;;;;;;;;;;5043469;28;20052;-86
2022/11/03 02:56:46;;;;;;;10.18;2.17;;;;;;;;;;5040517;28;20057;-86
2022/11/03 02:59:16;;;;;;;14.40;3.05;;;;;;;;;;5055894;28;20045;-86
2022/11/03 03:01:51;;;;;;;13.13;2.38;;;;;;;;;;5039809;28;20756;-86
2022/11/03 03:04:28;;;;;;;15.55;2.17;;;;;;;;;;5014713;28;20177;-86
2022/11/03 03:07:04;;;;;;;9.05;1.85;;;;;;;;;;5031096;28;20065;-86
2022/11/03 03:09:44;;;;;;;12.75;2.20;;;;;;;;;;5013958;28;20046;-86
2022/11/03 03:12:11;;;;;;;12.10;1.98;;;;;;;;;;5031922;28;20113;-86
2022/11/03 03:14:40;;;;;;;13.07;2.10;;;;;;;;;;5040391;28;20058;-86
2022/11/03 03:17:26;;;;;;;14.27;2.92;;;;;;;;;;5025326;28;20187;-86
2022/11/03 03:19:58;;;;;;;12.40;2.63;;;;;;;;;;5035705;28;20713;-86
2022/11/03 03:22:33;;;;;;;8.67;2.60;;;;;;;;;;5036553;28;20056;-86
2022/11/03 03:25:04;;;;;;;15.13;2.28;;;;;;;;;;5030046;28;20508;-87
2022/11/03 03:27:33;;;;;;;10.27;1.98;;;;;;;;;;5036261;28;20059;-86
2022/11/03 03:30:04;;;;;;;13.70;2.28;;;;;;;;;;5022126;28;20053;-86
2022/11/03 03:32:37;;;;;;;9.32;2.50;;;;;;;;;;5028356;28;20054;-86
2022/11/03 03:35:06;;;;;;;12.75;2.20;;;;;;;;;;5029831;28;20057;-86
2022/11/03 03:37:35;;;;;;;10.63;2.10;;;;;;;;;;5020014;28;20109;-86
2022/11/03 03:40:05;;;;;;;13.05;2.08;;;;;;;;;;5030385;28;20103;-86
2022/11/03 03:42:33;;;;;;;9.90;2.45;;;;;;;;;;5035859;28;20068;-86
2022/11/03 03:45:02;;;;;;;17.08;3.53;;;;;;;;;;5026592;28;20141;-87
2022/11/03 03:47:33;;;;;;;8.75;1.80;;;;;;;;;;5011954;28;20054;-86
2022/11/03 03:50:01;;;;;;;11.07;2.15;;;;;;;;;;5033021;28;20054;-86
2022/11/03 03:52:28;;;;;;;8.98;2.00;;;;;;;;;;5013135;28;20053;-87
2022/11/03 03:54:56;;;;;;;10.10;1.90;;;;;;;;;;5008526;28;20046;-87
2022/11/03 03:57:24;;;;;;;16.15;2.50;;;;;;;;;;5012822;28;20068;-86
2022/11/03 03:59:51;;;;;;;18.25;2.30;;;;;;;;;;5014255;28;20057;-86
2022/11/03 04:02:18;;;;;;;8.80;1.85;;;;;;;;;;5028467;28;20489;-86
2022/11/03 04:04:46;;;;;;;20.10;2.65;;;;;;;;;;5031763;28;20050;-87
2022/11/03 04:09:59;;;;;;;11.68;2.40;;;;;;;;;;5030344;28;20078;-86
2022/11/03 04:23:38;;;;;;;13.57;2.08;;;;;;;;;;5028160;28;20190;-86
2022/11/03 04:26:14;;;;;;;15.60;2.15;;;;;;;;;;5024659;28;20054;-86
2022/11/03 04:28:41;;;;;;;6.55;1.70;;;;;;;;;;5032950;28;20506;-86
2022/11/03 04:31:22;;;;;;;9.80;2.20;;;;;;;;;;5015864;28;20057;-86
2022/11/03 04:33:52;;;;;;;13.85;2.17;;;;;;;;;;5034978;28;20050;-87
2022/11/03 04:36:20;;;;;;;12.07;2.25;;;;;;;;;;5025939;28;20567;-87
2022/11/03 04:38:50;;;;;;;11.55;2.28;;;;;;;;;;5008121;28;20470;-86
2022/11/03 04:41:19;;;;;;;7.95;2.28;;;;;;;;;;5030605;28;20144;-86
2022/11/03 04:43:47;;;;;;;9.45;2.00;;;;;;;;;;5028537;28;20054;-86
2022/11/03 04:46:20;;;;;;;9.45;2.03;;;;;;;;;;5039981;28;20061;-86
2022/11/03 04:48:47;;;;;;;11.45;2.30;;;;;;;;;;5030385;28;20054;-87
2022/11/03 04:51:24;;;;;;;8.63;2.00;;;;;;;;;;5021782;28;20474;-86
2022/11/03 04:53:58;;;;;;;11.02;1.92;;;;;;;;;;5007383;28;20656;-86
2022/11/03 04:56:27;;;;;;;8.48;2.03;;;;;;;;;;5012677;28;20068;-86
2022/11/03 04:58:54;;;;;;;8.10;2.05;;;;;;;;;;5010241;28;20057;-86
2022/11/03 05:01:22;;;;;;;6.93;2.15;;;;;;;;;;5013822;28;20053;-86
2022/11/03 05:03:52;;;;;;;10.93;1.80;;;;;;;;;;5031935;28;20053;-86
2022/11/03 05:06:23;;;;;;;8.27;1.85;;;;;;;;;;5016242;28;20383;-87
2022/11/03 05:08:52;;;;;;;10.25;2.33;;;;;;;;;;5031912;28;20092;-86
2022/11/03 05:11:37;;;;;;;14.63;2.20;;;;;;;;;;5015315;28;20053;-86
2022/11/03 05:14:26;;;;;;;13.77;2.58;;;;;;;;;;5010077;28;20133;-86
2022/11/03 05:16:55;;;;;;;9.57;2.17;;;;;;;;;;5010744;28;20404;-87
2022/11/03 05:19:31;;;;;;;11.27;2.40;;;;;;;;;;5016151;28;20081;-87
2022/11/03 05:21:59;;;;;;;11.65;2.22;;;;;;;;;;5031081;28;20058;-86
2022/11/03 05:24:27;;;;;;;8.82;1.92;;;;;;;;;;5015451;28;20057;-86
2022/11/03 05:26:55;;;;;;;13.98;2.75;;;;;;;;;;5010781;28;20141;-86
2022/11/03 05:29:28;;;;;;;13.23;2.40;;;;;;;;;;5017826;28;20057;-86
2022/11/03 05:31:56;;;;;;;8.27;1.85;;;;;;;;;;5034231;28;20897;-87
2022/11/03 05:34:29;;;;;;;11.75;2.50;;;;;;;;;;5032066;28;20163;-87
2022/11/03 05:36:56;;;;;;;;;;;;;;;;;;5041694;28;20060;-87
2022/11/03 05:39:28;;;;;;;13.68;2.10;;;;;;;;;;5053617;28;44444;-87
2022/11/03 05:41:57;;;;;;;14.10;3.30;;;;;;;;;;5042166;28;20258;-86
2022/11/03 05:44:39;;;;;;;10.02;2.03;;;;;;;;;;5029450;28;20059;-87
2022/11/03 05:47:13;;;;;;;11.05;2.70;;;;;;;;;;5035452;28;20423;-86
2022/11/03 05:49:41;;;;;;;6.82;2.00;;;;;;;;;;5035728;28;20475;-86
2022/11/03 05:52:13;;;;;;;13.27;2.70;;;;;;;;;;5032070;28;20141;-87
2022/11/03 05:54:40;;;;;;;13.43;2.30;;;;;;;;;;5015835;23;20056;-75
2022/11/03 05:57:17;;;;;;;11.00;2.20;;;;;;;;;;5004474;28;20062;-75
2022/11/03 05:59:47;;;;;;;16.92;2.53;;;;;;;;;;5005105;28;20061;-75
2022/11/03 06:02:20;;;;;;;7.85;2.05;;;;;;;;;;5005769;28;20050;-74
2022/11/03 06:04:51;;;;;;;8.60;2.47;;;;;;;;;;5006976;28;20191;-75
2022/11/03 06:07:24;;;;;;;10.30;2.70;;;;;;;;;;5008188;28;20067;-75
2022/11/03 06:09:53;;;;;;;14.80;2.42;;;;;;;;;;5004931;28;20051;-76
2022/11/03 06:12:21;;;;;;;10.93;2.50;;;;;;;;;;5008249;28;20057;-75
2022/11/03 06:14:49;;;;;;;10.57;2.28;;;;;;;;;;4997072;28;20059;-75
2022/11/03 06:17:23;;;;;;;10.98;2.50;;;;;;;;;;5012631;28;20058;-75
2022/11/03 06:19:55;;;;;;;10.02;2.40;;;;;;;;;;5013963;28;20046;-75
2022/11/03 06:22:29;;;;;;;13.60;2.78;;;;;;;;;;5010360;28;20133;-76
2022/11/03 06:25:10;;;;;;;9.00;2.13;;;;;;;;;;5003229;28;20055;-75
2022/11/03 06:27:38;;;;;;;12.02;2.30;;;;;;;;;;5002766;28;20042;-75
2022/11/03 06:30:31;;;;;;;8.70;2.20;;;;;;;;;;4998425;28;20806;-75
2022/11/03 06:33:01;;;;;;;15.60;2.47;;;;;;;;;;5004193;28;20926;-74
2022/11/03 06:35:29;;;;;;;14.93;2.70;;;;;;;;;;5002812;28;20084;-75
2022/11/03 06:37:57;;;;;;;8.60;2.40;;;;;;;;;;4999109;28;20484;-76
2022/11/03 06:40:37;;;;;;;11.95;2.63;;;;;;;;;;5002689;28;20046;-75
2022/11/03 06:43:26;;;;;;;14.68;2.58;;;;;;;;;;4999836;28;20054;-75
2022/11/03 06:45:56;;;;;;;9.10;1.92;;;;;;;;;;5008912;28;20046;-76
2022/11/03 06:48:33;;;;;;;9.93;2.83;;;;;;;;;;5001500;28;20106;-75
2022/11/03 06:51:01;;;;;;;12.20;2.40;;;;;;;;;;4996170;28;20058;-75
2022/11/03 06:53:33;;;;;;;14.15;2.85;;;;;;;;;;5007196;28;20117;-76
2022/11/03 06:56:01;;;;;;;11.98;2.42;;;;;;;;;;5031869;28;21341;-75
2022/11/03 06:58:30;;;;;;;10.40;2.75;;;;;;;;;;5033108;28;20884;-75
2022/11/03 07:00:59;;;;;;;16.73;2.88;;;;;;;;;;5029388;28;20105;-75
2022/11/03 07:03:32;;;;;;;10.38;2.63;;;;;;;;;;5024099;28;20060;-74
2022/11/03 07:05:59;;;;;;;15.23;2.28;;;;;;;;;;5019576;28;21245;-75
2022/11/03 07:08:31;;;;;;;10.13;2.38;;;;;;;;;;5019983;28;20070;-76
2022/11/03 07:11:00;;;;;;;8.90;1.92;;;;;;;;;;5017244;28;20058;-75
2022/11/03 07:13:28;;;;;;;11.43;2.50;;;;;;;;;;5022001;28;20060;-75
2022/11/03 07:15:55;;;;;;;12.70;2.40;;;;;;;;;;5027324;28;20045;-74
2022/11/03 07:18:38;;;;;;;16.25;3.90;;;;;;;;;;5019055;28;20435;-76
2022/11/03 07:21:14;;;;;;;10.82;2.10;;;;;;;;;;5021494;28;20136;-75
2022/11/03 07:23:41;;;;;;;12.48;2.72;;;;;;;;;;5022841;28;21075;-75
2022/11/03 07:26:13;;;;;;;13.00;2.38;;;;;;;;;;5022922;28;20060;-74
2022/11/03 07:28:41;;;;;;;12.48;2.58;;;;;;;;;;5018479;28;20042;-75
2022/11/03 07:31:18;;;;;;;8.23;2.25;;;;;;;;;;5024916;28;20057;-77
2022/11/03 07:33:45;;;;;;;11.48;2.20;;;;;;;;;;5022063;28;20105;-74
2022/11/03 07:36:20;;;;;;;15.23;2.80;;;;;;;;;;5021020;28;20054;-74
2022/11/03 07:38:50;;;;;;;7.50;2.13;;;;;;;;;;5029935;28;20050;-75
2022/11/03 07:41:19;;;;;;;11.60;2.50;;;;;;;;;;5016903;28;20054;-75
2022/11/03 07:43:51;;;;;;;19.85;2.45;;;;;;;;;;5023208;28;20050;-74
2022/11/03 07:46:20;;;;;;;9.75;2.08;;;;;;;;;;5017500;28;20062;-75
2022/11/03 07:48:51;;;;;;;13.43;2.40;;;;;;;;;;5021251;28;20824;-74
2022/11/03 07:51:18;;;;;;;10.77;2.42;;;;;;;;;;5025091;28;20053;-76
2022/11/03 07:53:46;;;;;;;14.65;2.10;;;;;;;;;;5030767;28;20152;-76
2022/11/03 07:56:22;;;;;;;12.98;2.67;;;;;;;;;;5022696;28;20049;-75
2022/11/03 07:58:51;;;;;;;10.40;2.20;;;;;;;;;;5025792;28;20054;-75
2022/11/03 08:01:40;;;;;;;7.03;2.10;;;;;;;;;;5021225;28;20105;-74
2022/11/03 08:04:10;;;;;;;11.90;2.30;;;;;;;;;;5019854;28;20117;-75
2022/11/03 08:06:37;;;;;;;12.45;2.30;;;;;;;;;;5011337;28;20042;-75
2022/11/03 08:09:05;;;;;;;10.77;2.08;;;;;;;;;;5027963;28;20054;-74
2022/11/03 08:11:33;;;;;;;8.25;2.20;;;;;;;;;;5027149;28;20094;-74
2022/11/03 08:14:01;;;;;;;10.40;2.20;;;;;;;;;;5027921;28;20140;-74
2022/11/03 08:16:28;;;;;;;11.30;2.72;;;;;;;;;;5013778;28;20049;-75
2022/11/03 08:18:56;;;;;;;10.68;2.38;;;;;;;;;;5018385;28;20056;-75
2022/11/03 08:21:24;;;;;;;7.63;2.22;;;;;;;;;;5017898;28;20045;-75
2022/11/03 08:23:51;;;;;;;9.77;2.47;;;;;;;;;;5018188;28;20056;-74
2022/11/03 08:26:22;;;;;;;13.93;2.60;;;;;;;;;;5022104;28;20050;-75
2022/11/03 08:28:49;;;;;;;11.40;2.38;;;;;;;;;;5025551;28;20049;-75
2022/11/03 08:31:16;;;;;;;9.77;2.50;;;;;;;;;;5033938;28;20574;-73
2022/11/03 08:33:44;;;;;;;8.25;2.28;;;;;;;;;;5019763;28;20046;-74
2022/11/03 08:36:12;;;;;;;10.32;2.28;;;;;;;;;;5027473;28;20055;-75
2022/11/03 08:38:39;;;;;;;12.48;2.90;;;;;;;;;;5017048;28;20053;-73
2022/11/03 08:41:10;;;;;;;10.70;2.75;;;;;;;;;;5018058;28;20144;-75
2022/11/03 08:43:37;;;;;;;14.00;2.38;;;;;;;;;;5024268;28;20086;-74
2022/11/03 08:46:05;;;;;;;14.00;2.70;;;;;;;;;;5019764;28;20557;-74
2022/11/03 08:48:44;;;;;;;13.20;3.08;;;;;;;;;;5028888;28;20113;-74
2022/11/03 08:51:12;;;;;;;15.13;2.53;;;;;;;;;;5023213;28;20058;-74
2022/11/03 08:53:43;;;;;;;14.13;2.50;;;;;;;;;;5010483;28;20050;-74
2022/11/03 08:56:11;;;;;;;15.07;2.80;;;;;;;;;;5029738;28;20165;-74
2022/11/03 08:58:43;;;;;;;13.77;2.60;;;;;;;;;;5014720;28;20070;-73
2022/11/03 09:01:10;;;;;;;12.98;2.92;;;;;;;;;;5016890;28;20093;-74
2022/11/03 09:03:40;;;;;;;13.20;2.17;;;;;;;;;;5025316;28;20160;-74
2022/11/03 09:06:08;;;;;;;10.73;2.15;;;;;;;;;;5013636;28;20130;-73
2022/11/03 09:08:35;;;;;;;6.80;2.00;;;;;;;;;;5021293;28;20494;-74
2022/11/03 09:11:22;;;;;;;11.75;2.10;;;;;;;;;;5020558;28;20054;-74
2022/11/03 09:13:50;;;;;;;11.68;2.15;;;;;;;;;;5019601;28;21106;-74
2022/11/03 09:16:17;;;;;;;16.20;2.63;;;;;;;;;;5027030;28;20881;-74
2022/11/03 09:18:44;;;;;;;11.85;2.38;;;;;;;;;;5017591;28;20050;-74
2022/11/03 09:21:13;;;;;;;10.32;2.20;;;;;;;;;;5020812;28;20046;-74
2022/11/03 09:23:41;;;;;;;17.33;2.55;;;;;;;;;;5022671;28;20806;-74
2022/11/03 09:26:09;;;;;;;10.07;2.40;;;;;;;;;;5019448;28;20100;-74
2022/11/03 09:28:36;;;;;;;14.25;2.40;;;;;;;;;;5021313;28;20137;-74
2022/11/03 09:31:03;;;;;;;12.70;3.40;;;;;;;;;;5025127;28;20525;-74
2022/11/03 09:33:31;;;;;;;12.10;2.40;;;;;;;;;;5020522;28;20054;-74
2022/11/03 09:35:58;;;;;;;12.63;2.40;;;;;;;;;;5020361;28;20057;-74
2022/11/03 09:38:25;;;;;;;12.65;2.53;;;;;;;;;;5015082;28;20442;-73
2022/11/03 09:40:55;;;;;;;7.55;2.60;;;;;;;;;;5023388;28;20892;-74
2022/11/03 09:43:23;;;;;;;10.63;2.60;;;;;;;;;;5015812;28;20061;-73
2022/11/03 09:45:53;;;;;;;10.50;2.20;;;;;;;;;;5017216;28;20514;-74
2022/11/03 09:48:20;;;;;;;8.20;2.20;;;;;;;;;;5023406;28;20080;-74
2022/11/03 09:50:52;;;;;;;12.35;2.40;;;;;;;;;;5020677;28;20046;-74
2022/11/03 09:53:20;;;;;;;11.73;2.38;;;;;;;;;;5020409;28;20060;-73
2022/11/03 09:55:54;;;;;;;10.98;2.45;;;;;;;;;;5022644;28;20049;-74
2022/11/03 09:58:25;;;;;;;9.10;2.47;;;;;;;;;;5022648;28;20050;-74
2022/11/03 10:00:53;;;;;;;12.63;2.55;;;;;;;;;;5019523;28;20049;-74
2022/11/03 10:03:20;;;;;;;15.32;2.42;;;;;;;;;;5018341;28;20137;-74
2022/11/03 10:05:48;;;;;;;7.40;2.40;;;;;;;;;;5016270;28;20137;-73
2022/11/03 10:08:22;;;;;;;10.07;2.53;;;;;;;;;;5016034;28;20062;-73
2022/11/03 10:10:53;;;;;;;7.03;1.95;;;;;;;;;;5017943;28;20053;-73
2022/11/03 10:13:28;;;;;;;10.40;2.25;;;;;;;;;;5023985;28;20049;-74
2022/11/03 10:15:56;;;;;;;8.38;2.42;;;;;;;;;;5019265;28;20046;-74
2022/11/03 10:18:23;;;;;;;12.23;2.50;;;;;;;;;;5019480;28;20585;-73
2022/11/03 10:20:51;;;;;;;9.35;2.53;;;;;;;;;;5027374;28;20162;-74
2022/11/03 10:23:18;;;;;;;15.27;2.75;;;;;;;;;;5025562;28;20049;-74
2022/11/03 10:25:57;;;;;;;14.55;3.00;;;;;;;;;;5028315;28;20053;-74
2022/11/03 10:28:25;;;;;;;9.88;2.20;;;;;;;;;;5023571;28;20112;-73
2022/11/03 10:30:55;;;;;;;11.02;2.10;;;;;;;;;;5016352;28;20227;-73
2022/11/03 10:33:39;;;;;;;8.68;2.00;;;;;;;;;;5021778;28;20054;-74
2022/11/03 10:36:16;;;;;;;11.50;2.40;;;;;;;;;;5019913;28;20062;-73
2022/11/03 10:38:44;;;;;;;9.20;2.25;;;;;;;;;;5017738;28;20050;-73
2022/11/03 10:41:16;;;;;;;9.85;2.17;;;;;;;;;;5016802;28;20057;-73
2022/11/03 10:43:44;;;;;;;10.38;2.13;;;;;;;;;;5012446;28;20728;-73
2022/11/03 10:46:17;;;;;;;7.65;2.20;;;;;;;;;;5018217;28;20046;-73
2022/11/03 10:49:20;;;;;;;7.15;2.38;;;;;;;;;;5014865;28;20050;-74
2022/11/03 10:51:52;;;;;;;10.60;2.30;;;;;;;;;;5016394;28;20089;-74
2022/11/03 10:54:23;;;;;;;6.95;2.17;;;;;;;;;;5015387;28;20062;-74
2022/11/03 10:56:51;;;;;;;13.18;3.08;;;;;;;;;;5013816;28;20881;-75
2022/11/03 10:59:19;;;;;;;7.85;1.90;;;;;;;;;;5028437;28;20057;-73
2022/11/03 11:01:47;;;;;;;10.48;2.20;;;;;;;;;;5020404;28;21169;-73
2022/11/03 11:04:23;;;;;;;11.75;2.08;;;;;;;;;;5016650;28;20069;-73
2022/11/03 11:06:51;;;;;;;;;;;;;;;;;;5019883;28;20057;-73
2022/11/03 11:09:25;;;;;;;11.18;2.25;;;;;;;;;;5016291;28;42035;-74
2022/11/03 11:12:02;;;;;;;7.68;2.50;;;;;;;;;;5019310;28;20046;-73
2022/11/03 11:14:33;;;;;;;10.77;2.38;;;;;;;;;;5013704;28;20053;-74
2022/11/03 11:17:01;;;;;;;10.30;2.28;;;;;;;;;;5018996;28;20418;-74
2022/11/03 11:19:29;;;;;;;12.77;3.70;;;;;;;;;;5021325;28;20132;-74
2022/11/03 11:21:56;;;;;;;11.15;2.17;;;;;;;;;;5022971;28;20104;-74
2022/11/03 11:24:42;;;;;;;7.50;2.10;;;;;;;;;;5013431;28;20054;-73
2022/11/03 11:27:30;;;;;;;8.60;2.35;;;;;;;;;;5022325;28;20050;-73
2022/11/03 11:29:58;;;;;;;11.27;2.45;;;;;;;;;;5019409;28;20077;-73
2022/11/03 11:32:41;;;;;;;10.48;2.10;;;;;;;;;;5019068;28;20078;-74
2022/11/03 11:35:10;;;;;;;13.97;1.63;;;;;;;;;;5022236;28;20058;-74
2022/11/03 11:37:38;;;;;;;6.70;1.80;;;;;;;;;;5019527;28;20053;-72
2022/11/03 11:40:12;;;;;;;6.00;1.98;;;;;;;;;;5018919;28;20050;-76
2022/11/03 11:43:02;;;;;;;7.95;2.20;;;;;;;;;;5018027;28;20060;-74
2022/11/03 11:45:47;;;;;;;9.23;2.15;;;;;;;;;;5047457;28;20132;-74
2022/11/03 11:48:17;;;;;;;6.45;2.00;;;;;;;;;;5018348;28;20101;-75
2022/11/03 11:50:45;;;;;;;8.82;1.80;;;;;;;;;;5025154;28;20054;-74
2022/11/03 11:53:14;;;;;;;10.85;1.92;;;;;;;;;;5021336;28;20105;-74
2022/11/03 11:55:41;;;;;;;8.95;2.33;;;;;;;;;;5026076;28;20050;-76
2022/11/03 11:58:34;;;;;;;9.75;1.55;;;;;;;;;;5018842;28;20053;-74
2022/11/03 12:01:19;;;;;;;12.13;2.35;;;;;;;;;;4997940;28;20058;-75
2022/11/03 12:03:47;;;;;;;9.63;2.05;;;;;;;;;;5025221;28;20049;-73
2022/11/03 12:06:15;;;;;;;9.80;2.17;;;;;;;;;;5023095;28;20905;-74
2022/11/03 12:08:43;;;;;;;7.50;1.95;;;;;;;;;;5017687;28;20052;-74
2022/11/03 12:11:13;;;;;;;10.82;2.58;;;;;;;;;;5023964;28;20133;-75
2022/11/03 12:13:43;;;;;;;5.78;2.10;;;;;;;;;;5021285;28;20104;-74
2022/11/03 12:16:26;;;;;;;9.88;2.05;;;;;;;;;;5018999;28;20057;-74
2022/11/03 12:18:54;;;;;;;7.68;1.80;;;;;;;;;;5015922;28;20051;-73
2022/11/03 12:21:40;;;;;;;7.35;2.00;;;;;;;;;;5014440;28;20054;-74
2022/11/03 12:24:28;;;;;;;9.52;1.83;;;;;;;;;;5014064;28;20054;-74
2022/11/03 12:26:55;;;;;;;4.70;1.85;;;;;;;;;;5015268;28;20081;-75
2022/11/03 12:29:22;;;;;;;7.75;2.00;;;;;;;;;;5020875;28;20060;-74
2022/11/03 12:31:49;;;;;;;9.23;1.80;;;;;;;;;;5015641;28;20050;-74
2022/11/03 12:34:16;;;;;;;7.53;1.98;;;;;;;;;;5015481;28;20671;-74
2022/11/03 12:36:44;;;;;;;8.98;2.13;;;;;;;;;;5012863;28;20054;-74
2022/11/03 12:39:12;;;;;;;8.70;2.10;;;;;;;;;;5022669;28;20430;-75
2022/11/03 12:41:39;;;;;;;5.43;1.83;;;;;;;;;;5028509;28;20046;-75
2022/11/03 12:44:06;;;;;;;8.75;2.20;;;;;;;;;;5015589;28;20054;-74
2022/11/03 12:46:34;;;;;;;9.15;2.00;;;;;;;;;;5022031;28;20050;-74
2022/11/03 12:49:01;;;;;;;8.13;2.08;;;;;;;;;;5014409;28;20062;-74
2022/11/03 12:51:29;;;;;;;7.20;1.98;;;;;;;;;;5014837;28;20125;-74
2022/11/03 12:53:56;;;;;;;8.55;2.05;;;;;;;;;;5016121;28;20105;-76
2022/11/03 12:56:23;;;;;;;7.93;1.63;;;;;;;;;;5025637;28;20146;-73
2022/11/03 12:58:50;;;;;;;8.27;1.80;;;;;;;;;;5018403;28;20053;-74
2022/11/03 13:01:18;;;;;;;6.13;1.95;;;;;;;;;;5022561;28;20419;-74
2022/11/03 13:03:45;;;;;;;6.68;1.88;;;;;;;;;;5026911;28;20052;-74
2022/11/03 13:06:13;;;;;;;4.68;1.75;;;;;;;;;;5012544;28;20050;-74
2022/11/03 13:08:41;;;;;;;6.90;1.77;;;;;;;;;;5012793;28;20050;-73
2022/11/03 13:13:54;;;;;;;6.78;1.65;;;;;;;;;;5022357;28;20065;-74
2022/11/03 13:16:22;;;;;;;6.72;1.73;;;;;;;;;;5015919;28;20637;-74
2022/11/03 13:18:49;;;;;;;5.65;1.75;;;;;;;;;;5015216;28;20704;-73
2022/11/03 13:21:17;;;;;;;7.10;1.65;;;;;;;;;;5021259;28;20057;-74
2022/11/03 13:23:44;;;;;;;12.18;2.22;;;;;;;;;;5015321;28;20215;-73
2022/11/03 13:26:11;;;;;;;6.10;2.05;;;;;;;;;;5015172;28;20057;-74
2022/11/03 13:28:39;;;;;;;4.45;1.48;;;;;;;;;;5023753;28;20054;-74
2022/11/03 13:31:09;;;;;;;6.68;1.60;;;;;;;;;;5024280;28;20516;-74
2022/11/03 13:33:38;;;;;;;6.65;1.60;;;;;;;;;;5016164;28;20053;-74
2022/11/03 13:36:08;;;;;;;6.40;1.60;;;;;;;;;;5025431;28;20104;-75
2022/11/03 13:38:36;;;;;;;5.78;1.40;;;;;;;;;;5028213;28;20050;-74
2022/11/03 13:41:03;;;;;;;5.28;1.88;;;;;;;;;;5026811;28;20049;-73
2022/11/03 13:43:35;;;;;;;7.57;1.90;;;;;;;;;;5019733;28;20066;-73
2022/11/03 13:46:03;;;;;;;4.00;1.63;;;;;;;;;;5023422;28;20057;-74
2022/11/03 13:48:31;;;;;;;5.78;1.83;;;;;;;;;;5014568;28;20055;-74
2022/11/03 13:51:20;;;;;;;8.32;2.58;;;;;;;;;;5020609;28;20056;-74
2022/11/03 13:53:47;;;;;;;8.07;2.10;;;;;;;;;;5010344;28;20081;-75
2022/11/03 13:56:35;;;;;;;8.60;1.83;;;;;;;;;;5018774;28;20054;-73
2022/11/03 13:59:22;;;;;;;5.97;2.30;;;;;;;;;;5021928;28;20055;-73
2022/11/03 14:01:54;;;;;;;13.90;3.25;;;;;;;;;;5014988;28;20050;-74
2022/11/03 14:04:42;;;;;;;6.18;1.73;;;;;;;;;;5015384;28;20082;-74
2022/11/03 14:07:10;;;;;;;5.10;1.75;;;;;;;;;;5023298;28;20145;-73
2022/11/03 14:09:37;;;;;;;8.77;1.95;;;;;;;;;;5013555;28;20105;-75
2022/11/03 14:14:51;;;;;;;8.15;1.80;;;;;;;;;;5017954;28;20064;-74
2022/11/03 14:17:27;;;;;;;7.68;2.05;;;;;;;;;;5017396;28;20470;-73
2022/11/03 14:19:54;;;;;;;9.00;1.90;;;;;;;;;;5023402;28;20511;-73
2022/11/03 14:22:30;;;;;;;6.38;1.85;;;;;;;;;;5022010;28;20404;-73
2022/11/03 14:24:57;;;;;;;10.85;1.90;;;;;;;;;;5025456;28;20484;-74
2022/11/03 14:27:26;;;;;;;5.93;1.80;;;;;;;;;;5028519;28;20132;-74
2022/11/03 14:29:53;;;;;;;6.85;1.70;;;;;;;;;;5028190;28;20141;-74
2022/11/03 14:32:20;;;;;;;3.83;2.28;;;;;;;;;;5021352;28;20054;-74
2022/11/03 14:34:48;;;;;;;7.22;2.17;;;;;;;;;;5015501;28;20511;-73
2022/11/03 14:37:16;;;;;;;6.05;1.98;;;;;;;;;;5019369;28;20050;-75
2022/11/03 14:39:44;;;;;;;5.47;1.70;;;;;;;;;;5028255;28;20057;-74
2022/11/03 14:42:16;;;;;;;5.25;1.52;;;;;;;;;;5023841;28;20266;-74
2022/11/03 14:44:44;;;;;;;8.15;2.00;;;;;;;;;;5020697;28;20086;-74
2022/11/03 14:47:13;;;;;;;6.93;1.80;;;;;;;;;;5012995;28;20086;-73
2022/11/03 14:49:41;;;;;;;6.55;2.08;;;;;;;;;;5022707;28;20061;-74
2022/11/03 14:52:09;;;;;;;7.68;2.30;;;;;;;;;;5023290;28;20050;-72
2022/11/03 14:54:36;;;;;;;8.43;2.53;;;;;;;;;;5016623;28;20117;-74
2022/11/03 14:57:04;;;;;;;5.95;1.88;;;;;;;;;;5024978;28;20050;-74
2022/11/03 14:59:32;;;;;;;6.82;2.08;;;;;;;;;;5016792;28;20065;-74
2022/11/03 15:02:02;;;;;;;5.97;2.03;;;;;;;;;;5010472;28;20132;-74
2022/11/03 15:04:29;;;;;;;9.75;2.38;;;;;;;;;;5020311;28;20132;-74
2022/11/03 15:06:57;;;;;;;6.13;2.10;;;;;;;;;;5022624;28;20050;-73
2022/11/03 15:09:24;;;;;;;8.23;2.33;;;;;;;;;;5025143;28;20054;-74
2022/11/03 15:11:55;;;;;;;6.03;2.22;;;;;;;;;;5020274;28;20503;-74
2022/11/03 15:14:25;;;;;;;10.80;2.22;;;;;;;;;;5034320;28;20129;-74
2022/11/03 15:16:52;;;;;;;6.88;2.00;;;;;;;;;;5026086;28;20569;-74
2022/11/03 15:19:19;;;;;;;9.30;2.25;;;;;;;;;;5015137;28;20050;-73
2022/11/03 15:21:46;;;;;;;6.15;1.92;;;;;;;;;;5014636;28;20089;-74
2022/11/03 15:24:16;;;;;;;5.82;1.95;;;;;;;;;;5016337;28;20498;-74
2022/11/03 15:27:04;;;;;;;9.35;2.30;;;;;;;;;;5014683;28;20050;-74